This is the latest recevied weather packets stored in our database for station/object VA3PC-13. If no packets are shown the sender has not sent any weather packets the latest 10 day(s).
| Time | Temp. | Humidity | Pressure | Rain* | Wind** | Luminosity | Snow |
|---|---|---|---|---|---|---|---|
| 1778322320 | 5.56° C | 73% | 975.3 hPa | 0 mm | - | 8 W/m² | - |
| 1778321719 | 5° C | 73% | 975.3 hPa | 0 mm | - | 5 W/m² | - |
| 1778320518 | 3.89° C | 75% | 975.4 hPa | 0 mm | - | 1 W/m² | - |
| 1778319318 | 3.89° C | 74% | 975.5 hPa | 0 mm | - | 0 W/m² | - |
| 1778316918 | 1.67° C | 77% | 975.8 hPa | 0 mm | - | 0 W/m² | - |
| 1778310920 | 0.56° C | 78% | 976.6 hPa | 0 mm | - | 0 W/m² | - |
| 1778305519 | 1.67° C | 75% | 977.4 hPa | 0 mm | - | 0 W/m² | - |
| 1778301919 | 3.33° C | 71% | 977.5 hPa | 0 mm | - | 0 W/m² | - |
| 1778301319 | 3.33° C | 69% | 977.5 hPa | 0 mm | - | 0 W/m² | - |
| 1778298917 | 4.44° C | 69% | 977.7 hPa | 0 mm | - | 0 W/m² | - |
| 1778297720 | 5° C | 66% | 977.8 hPa | 0 mm | - | 0 W/m² | - |
| 1778295340 | 6.11° C | 57% | 977.8 hPa | 0 mm | - | 0 W/m² | - |
| 1778292939 | 6.67° C | 56% | 977.7 hPa | 0 mm | - | 0 W/m² | - |
| 1778286920 | 7.78° C | 53% | 978 hPa | 0 mm | - | 2 W/m² | - |
| 1778283317 | 9.44° C | 50% | 977.7 hPa | 0 mm | - | 29 W/m² | - |
| 1778282717 | 9.44° C | 50% | 977.6 hPa | 0 mm | - | 34 W/m² | - |
| 1778282121 | 9.44° C | 48% | 977.7 hPa | 0 mm | - | 38 W/m² | - |
| 1778279122 | 10° C | 45% | 977.3 hPa | 0 mm | - | 82 W/m² | - |
| 1778272521 | 10° C | 44% | 977.4 hPa | 0 mm | - | 174 W/m² | - |
| 1778270120 | 8.33° C | 58% | 977.7 hPa | 0 mm | - | 262 W/m² | - |
| 1778268320 | 8.89° C | 57% | 978.1 hPa | 0 mm | - | 231 W/m² | - |
| 1778264739 | 8.89° C | 60% | 978.4 hPa | 0 mm | - | 255 W/m² | - |
| 1778264118 | 8.33° C | 61% | 977.8 hPa | 0 mm | - | 502 W/m² | - |
| 1778261119 | 7.78° C | 63% | 978.9 hPa | 0 mm | - | 217 W/m² | - |
| 1778257538 | 6.67° C | 67% | 979.7 hPa | 0 mm | - | 133 W/m² | - |
* Rain latest hour (hover to see other rain measurements)
** Current wind speed in m/s (hover to see current wind gust speed)